createdAt,value
2017-03-08T00:00:49.504Z,0
2017-03-08T00:02:00.188Z,0
2017-03-08T00:03:10.538Z,0
2017-03-08T00:04:20.099Z,0
2017-03-08T00:05:30.473Z,0
2017-03-08T00:06:40.832Z,0
2017-03-08T00:07:51.856Z,0
2017-03-08T00:09:02.637Z,0
2017-03-08T00:10:13.533Z,0
2017-03-08T00:11:23.895Z,0
2017-03-08T00:12:33.842Z,0
2017-03-08T00:13:44.851Z,0
2017-03-08T00:14:55.607Z,0
2017-03-08T00:16:06.357Z,0
2017-03-08T00:17:16.704Z,0
2017-03-08T00:18:26.650Z,0
2017-03-08T00:19:37.249Z,0
2017-03-08T00:20:47.987Z,0
2017-03-08T00:21:58.721Z,0
2017-03-08T00:23:09.066Z,0
2017-03-08T00:24:19.418Z,0
2017-03-08T00:25:30.410Z,0
2017-03-08T00:26:40.765Z,0
2017-03-08T00:27:51.120Z,0
2017-03-08T00:29:01.485Z,0
2017-03-08T00:30:11.850Z,0
2017-03-08T00:31:22.052Z,0
2017-03-08T00:32:32.398Z,0
2017-03-08T00:33:42.759Z,0
2017-03-08T00:34:53.098Z,0
2017-03-08T00:36:03.849Z,0
2017-03-08T00:37:14.890Z,0
2017-03-08T00:38:25.635Z,0
2017-03-08T00:39:35.584Z,0
2017-03-08T00:40:45.933Z,0
2017-03-08T00:41:55.517Z,0
2017-03-08T00:43:06.588Z,0
2017-03-08T00:44:17.335Z,0
2017-03-08T00:45:27.700Z,0
2017-03-08T00:46:37.263Z,0
2017-03-08T00:47:47.618Z,0
2017-03-08T00:48:57.888Z,0
2017-03-08T00:50:08.228Z,0
2017-03-08T00:51:18.567Z,0
2017-03-08T00:52:29.310Z,0
2017-03-08T00:53:40.043Z,0
2017-03-08T00:54:50.650Z,0
2017-03-08T00:56:01.030Z,0
2017-03-08T00:57:11.776Z,0
2017-03-08T00:58:21.732Z,0
2017-03-08T00:59:32.478Z,0
2017-03-08T01:00:43.085Z,0
2017-03-08T01:01:53.514Z,0
2017-03-08T01:03:03.882Z,0
2017-03-08T01:04:13.824Z,0
2017-03-08T01:05:24.585Z,0
2017-03-08T01:06:35.632Z,0
2017-03-08T01:07:46.019Z,0
2017-03-08T01:08:55.585Z,0
2017-03-08T01:10:05.533Z,0
2017-03-08T01:11:16.272Z,0
2017-03-08T01:12:26.523Z,0
2017-03-08T01:13:37.271Z,0
2017-03-08T01:14:48.049Z,0
2017-03-08T01:15:58.023Z,0
2017-03-08T01:17:07.994Z,0
2017-03-08T01:18:18.602Z,0
2017-03-08T01:19:28.541Z,0
2017-03-08T01:20:38.497Z,0
2017-03-08T01:21:48.843Z,0
2017-03-08T01:22:59.223Z,0
2017-03-08T01:24:09.441Z,0
2017-03-08T01:25:20.228Z,0
2017-03-08T01:26:30.982Z,0
2017-03-08T01:27:41.332Z,0
2017-03-08T01:28:51.680Z,0
2017-03-08T01:30:02.317Z,0
2017-03-08T01:31:13.047Z,0
2017-03-08T01:32:23.790Z,0
2017-03-08T01:33:34.139Z,0
2017-03-08T01:34:44.103Z,0
2017-03-08T01:35:54.731Z,0
2017-03-08T01:37:05.446Z,0
2017-03-08T01:38:16.208Z,0
2017-03-08T01:39:26.179Z,0
2017-03-08T01:40:36.935Z,0
2017-03-08T01:41:47.235Z,0
2017-03-08T01:42:57.978Z,0
2017-03-08T01:44:07.977Z,0
2017-03-08T01:45:17.940Z,0
2017-03-08T01:46:28.717Z,0
2017-03-08T01:47:39.774Z,0
2017-03-08T01:48:50.112Z,0
2017-03-08T01:50:00.877Z,0
2017-03-08T01:51:11.240Z,0
2017-03-08T01:52:22.000Z,0
2017-03-08T01:53:33.002Z,0
2017-03-08T01:54:43.002Z,0
2017-03-08T01:55:52.973Z,0
2017-03-08T01:57:03.706Z,0
2017-03-08T01:58:14.445Z,0
2017-03-08T01:59:24.634Z,0
2017-03-08T02:00:35.026Z,0
2017-03-08T02:01:45.774Z,0
2017-03-08T02:02:56.515Z,0
2017-03-08T02:04:06.876Z,0
2017-03-08T02:05:17.862Z,0
2017-03-08T02:06:28.219Z,0
2017-03-08T02:07:38.970Z,0
2017-03-08T02:08:49.709Z,0
2017-03-08T02:10:00.096Z,0
2017-03-08T02:11:11.149Z,0
2017-03-08T02:12:21.497Z,0
2017-03-08T02:13:32.265Z,0
2017-03-08T02:14:43.005Z,0
2017-03-08T02:15:53.363Z,0
2017-03-08T02:17:03.964Z,0
2017-03-08T02:18:13.895Z,0
2017-03-08T02:19:23.868Z,0
2017-03-08T02:20:33.834Z,0
2017-03-08T02:21:44.179Z,0
2017-03-08T02:22:54.387Z,0
2017-03-08T02:24:04.730Z,0
2017-03-08T02:25:15.097Z,0
2017-03-08T02:26:25.463Z,0
2017-03-08T02:27:36.204Z,0
2017-03-08T02:28:46.823Z,0
2017-03-08T02:29:57.562Z,0
2017-03-08T02:31:08.007Z,0
2017-03-08T02:32:18.372Z,0
2017-03-08T02:33:28.317Z,0
2017-03-08T02:34:39.309Z,0
2017-03-08T02:35:50.059Z,0
2017-03-08T02:37:00.407Z,0
2017-03-08T02:38:11.175Z,0
2017-03-08T02:39:21.917Z,0
2017-03-08T02:40:32.894Z,0
2017-03-08T02:41:43.623Z,0
2017-03-08T02:42:53.966Z,0
2017-03-08T02:44:04.714Z,0
2017-03-08T02:45:15.476Z,0
2017-03-08T02:46:26.483Z,0
2017-03-08T02:47:37.219Z,0
2017-03-08T02:48:47.577Z,0
2017-03-08T02:49:57.571Z,0
2017-03-08T02:51:08.029Z,0
2017-03-08T02:52:17.902Z,0
2017-03-08T02:53:28.282Z,0
2017-03-08T02:54:38.646Z,0
2017-03-08T02:55:49.405Z,0
2017-03-08T02:56:59.767Z,0
2017-03-08T02:58:10.361Z,0
2017-03-08T02:59:20.711Z,0
2017-03-08T03:00:30.660Z,0
2017-03-08T03:01:41.024Z,0
2017-03-08T03:02:51.766Z,0
2017-03-08T03:04:02.797Z,0
2017-03-08T03:05:13.539Z,0
2017-03-08T03:06:23.119Z,0
2017-03-08T03:07:33.082Z,0
2017-03-08T03:08:43.824Z,0
2017-03-08T03:09:54.442Z,0
2017-03-08T03:11:04.010Z,0
2017-03-08T03:12:14.360Z,0
2017-03-08T03:13:24.721Z,0
2017-03-08T03:14:34.695Z,0
2017-03-08T03:15:45.701Z,0
2017-03-08T03:16:55.677Z,0
2017-03-08T03:18:05.619Z,0
2017-03-08T03:19:15.988Z,0
2017-03-08T03:20:26.745Z,0
2017-03-08T03:21:37.326Z,0
2017-03-08T03:22:47.271Z,0
2017-03-08T03:23:58.010Z,0
2017-03-08T03:25:07.990Z,0
2017-03-08T03:26:18.378Z,0
2017-03-08T03:27:28.983Z,0
2017-03-08T03:28:38.564Z,0
2017-03-08T03:29:48.902Z,0
2017-03-08T03:30:59.635Z,0
2017-03-08T03:32:09.989Z,0
2017-03-08T03:33:20.698Z,0
2017-03-08T03:34:31.460Z,0
2017-03-08T03:35:41.802Z,0
2017-03-08T03:36:52.148Z,0
2017-03-08T03:38:02.115Z,0
2017-03-08T03:39:12.371Z,0
2017-03-08T03:40:22.744Z,0
2017-03-08T03:41:33.504Z,0
2017-03-08T03:42:44.234Z,0
2017-03-08T03:43:54.590Z,0
2017-03-08T03:45:09.555Z,0
2017-03-08T03:46:19.152Z,0
2017-03-08T03:47:29.123Z,0
2017-03-08T03:48:39.883Z,0
2017-03-08T03:49:49.046Z,0
2017-03-08T03:50:59.635Z,0
2017-03-08T03:52:09.968Z,0
2017-03-08T03:53:20.306Z,0
2017-03-08T03:54:31.027Z,0
2017-03-08T03:55:41.773Z,0
2017-03-08T03:56:52.419Z,0
2017-03-08T03:58:02.762Z,0
2017-03-08T03:59:13.521Z,0
2017-03-08T04:00:24.307Z,0
2017-03-08T04:01:34.659Z,0
2017-03-08T04:02:44.465Z,0
2017-03-08T04:03:55.187Z,0
2017-03-08T04:05:05.146Z,0
2017-03-08T04:06:15.493Z,0
2017-03-08T04:07:26.239Z,0
2017-03-08T04:08:37.230Z,0
2017-03-08T04:09:47.581Z,0
2017-03-08T04:10:57.943Z,0
2017-03-08T04:12:08.708Z,0
2017-03-08T04:13:19.066Z,0
2017-03-08T04:14:29.703Z,0
2017-03-08T04:15:40.052Z,0
2017-03-08T04:16:50.397Z,0
2017-03-08T04:18:00.755Z,0
2017-03-08T04:19:11.101Z,0
2017-03-08T04:20:21.309Z,0
2017-03-08T04:21:32.051Z,0
2017-03-08T04:22:42.816Z,0
2017-03-08T04:23:53.171Z,0
2017-03-08T04:25:03.914Z,0
2017-03-08T04:26:14.182Z,0
2017-03-08T04:27:24.509Z,0
2017-03-08T04:28:34.875Z,0
2017-03-08T04:29:45.632Z,0
2017-03-08T04:30:55.988Z,0
2017-03-08T04:32:06.609Z,0
2017-03-08T04:33:16.573Z,0
2017-03-08T04:34:27.351Z,0
2017-03-08T04:35:38.094Z,0
2017-03-08T04:36:48.064Z,0
2017-03-08T04:37:58.692Z,0
2017-03-08T04:39:09.454Z,0
2017-03-08T04:40:20.185Z,0
2017-03-08T04:41:30.142Z,0
2017-03-08T04:42:40.899Z,0
2017-03-08T04:43:51.892Z,0
2017-03-08T04:45:02.234Z,0
2017-03-08T04:46:11.818Z,0
2017-03-08T04:47:22.563Z,0
2017-03-08T04:48:33.334Z,0
2017-03-08T04:49:43.604Z,0
2017-03-08T04:50:53.972Z,0
2017-03-08T04:52:04.727Z,0
2017-03-08T04:53:15.082Z,0
2017-03-08T04:54:25.434Z,0
2017-03-08T04:55:35.306Z,0
2017-03-08T04:56:45.655Z,0
2017-03-08T04:57:56.016Z,0
2017-03-08T04:59:06.365Z,0
2017-03-08T05:00:16.737Z,0
2017-03-08T05:01:27.383Z,0
2017-03-08T05:02:38.128Z,0
2017-03-08T05:03:48.484Z,0
2017-03-08T05:04:59.248Z,0
2017-03-08T05:06:10.000Z,0
2017-03-08T05:07:21.071Z,0
2017-03-08T05:08:31.437Z,0
2017-03-08T05:09:41.831Z,0
2017-03-08T05:10:51.792Z,0
2017-03-08T05:12:01.758Z,0
2017-03-08T05:13:12.007Z,0
2017-03-08T05:14:21.582Z,0
2017-03-08T05:15:32.307Z,0
2017-03-08T05:16:42.301Z,4
2017-03-08T05:17:53.057Z,0
2017-03-08T05:19:02.916Z,0
2017-03-08T05:20:13.284Z,4
2017-03-08T05:21:23.652Z,4
2017-03-08T05:22:34.386Z,4
2017-03-08T05:23:44.742Z,8
2017-03-08T05:24:54.531Z,8
2017-03-08T05:26:04.464Z,4
2017-03-08T05:27:14.416Z,12
2017-03-08T05:28:24.368Z,12
2017-03-08T05:29:35.108Z,16
2017-03-08T05:30:45.378Z,16
2017-03-08T05:31:55.732Z,20
2017-03-08T05:33:06.109Z,24
2017-03-08T05:34:16.898Z,24
2017-03-08T05:35:27.651Z,28
2017-03-08T05:36:38.712Z,32
2017-03-08T05:37:49.078Z,36
2017-03-08T05:38:59.431Z,40
2017-03-08T05:40:09.810Z,44
2017-03-08T05:41:20.561Z,48
2017-03-08T05:42:30.426Z,44
2017-03-08T05:43:41.190Z,44
2017-03-08T05:44:51.942Z,56
2017-03-08T05:46:02.276Z,64
2017-03-08T05:47:12.628Z,60
2017-03-08T05:48:23.667Z,68
2017-03-08T05:49:34.033Z,76
2017-03-08T05:50:44.781Z,88
2017-03-08T05:51:55.139Z,100
2017-03-08T05:53:05.492Z,116
2017-03-08T05:54:15.744Z,120
2017-03-08T05:55:26.083Z,116
2017-03-08T05:56:36.439Z,108
2017-03-08T05:57:47.191Z,116
2017-03-08T05:58:56.762Z,128
2017-03-08T06:00:07.418Z,136
2017-03-08T06:01:18.179Z,144
2017-03-08T06:02:28.540Z,152
2017-03-08T06:03:38.496Z,152
2017-03-08T06:04:49.234Z,164
2017-03-08T06:06:00.288Z,160
2017-03-08T06:07:09.846Z,148
2017-03-08T06:08:20.195Z,136
2017-03-08T06:09:30.583Z,124
2017-03-08T06:10:40.979Z,124
2017-03-08T06:11:51.651Z,128
2017-03-08T06:13:02.419Z,140
2017-03-08T06:14:13.169Z,136
2017-03-08T06:15:23.931Z,156
2017-03-08T06:16:34.708Z,160
2017-03-08T06:17:45.320Z,196
2017-03-08T06:18:55.361Z,208
2017-03-08T06:20:06.112Z,196
2017-03-08T06:21:16.859Z,164
2017-03-08T06:22:27.650Z,144
2017-03-08T06:23:38.659Z,148
2017-03-08T06:24:49.418Z,152
2017-03-08T06:25:59.384Z,164
2017-03-08T06:27:09.895Z,176
2017-03-08T06:28:20.637Z,196
2017-03-08T06:29:31.245Z,196
2017-03-08T06:30:42.018Z,224
2017-03-08T06:31:51.972Z,220
2017-03-08T06:33:01.538Z,200
2017-03-08T06:34:12.000Z,180
2017-03-08T06:35:22.267Z,196
2017-03-08T06:36:32.240Z,184
2017-03-08T06:37:42.991Z,180
2017-03-08T06:38:52.995Z,168
2017-03-08T06:40:03.330Z,160
2017-03-08T06:41:14.032Z,160
2017-03-08T06:42:24.388Z,148
2017-03-08T06:43:35.162Z,144
2017-03-08T06:44:45.526Z,144
2017-03-08T06:45:55.873Z,140
2017-03-08T06:47:06.083Z,144
2017-03-08T06:48:15.254Z,140
2017-03-08T06:49:24.830Z,140
2017-03-08T06:50:35.165Z,144
2017-03-08T06:51:45.113Z,160
2017-03-08T06:52:55.731Z,164
2017-03-08T06:54:06.077Z,180
2017-03-08T06:55:16.837Z,188
2017-03-08T06:56:26.793Z,188
2017-03-08T06:57:37.568Z,204
2017-03-08T06:58:47.840Z,216
2017-03-08T06:59:58.218Z,204
2017-03-08T07:01:08.979Z,208
2017-03-08T07:02:19.753Z,216
2017-03-08T07:03:30.116Z,260
2017-03-08T07:04:40.770Z,268
2017-03-08T07:05:51.121Z,268
2017-03-08T07:07:01.088Z,268
2017-03-08T07:08:11.434Z,284
2017-03-08T07:09:21.389Z,284
2017-03-08T07:10:32.056Z,296
2017-03-08T07:11:42.416Z,336
2017-03-08T07:12:52.400Z,344
2017-03-08T07:14:02.371Z,352
2017-03-08T07:15:13.126Z,400
2017-03-08T07:16:22.706Z,448
2017-03-08T07:17:32.654Z,424
2017-03-08T07:18:42.614Z,432
2017-03-08T07:19:53.358Z,472
2017-03-08T07:21:03.971Z,508
2017-03-08T07:22:14.323Z,476
2017-03-08T07:23:25.111Z,428
2017-03-08T07:24:35.472Z,416
2017-03-08T07:25:45.474Z,416
2017-03-08T07:26:56.480Z,412
2017-03-08T07:28:06.848Z,424
2017-03-08T07:29:17.612Z,448
2017-03-08T07:30:28.016Z,488
2017-03-08T07:31:38.785Z,528
2017-03-08T07:32:49.392Z,584
2017-03-08T07:33:59.783Z,600
2017-03-08T07:35:10.231Z,600
2017-03-08T07:36:21.033Z,596
2017-03-08T07:37:31.808Z,604
2017-03-08T07:38:42.465Z,660
2017-03-08T07:39:52.929Z,684
2017-03-08T07:41:03.312Z,668
2017-03-08T07:42:13.713Z,700
2017-03-08T07:43:24.476Z,708
2017-03-08T07:44:35.146Z,688
2017-03-08T07:45:45.514Z,732
2017-03-08T07:46:55.865Z,820
2017-03-08T07:48:06.268Z,844
2017-03-08T07:49:16.630Z,808
2017-03-08T07:50:26.829Z,808
2017-03-08T07:51:36.790Z,820
2017-03-08T07:52:46.390Z,864
2017-03-08T07:53:56.393Z,908
2017-03-08T07:55:06.783Z,992
2017-03-08T07:56:17.853Z,1100
2017-03-08T07:57:27.804Z,1204
2017-03-08T07:58:38.166Z,1312
2017-03-08T07:59:48.131Z,1300
2017-03-08T08:00:58.872Z,1336
2017-03-08T08:02:09.551Z,1372
2017-03-08T08:03:19.938Z,1368
2017-03-08T08:04:30.690Z,1384
2017-03-08T08:05:40.646Z,1316
2017-03-08T08:06:51.401Z,1296
2017-03-08T08:08:02.024Z,1340
2017-03-08T08:09:12.786Z,1316
2017-03-08T08:10:23.171Z,1320
2017-03-08T08:11:33.510Z,1352
2017-03-08T08:12:43.487Z,1320
2017-03-08T08:13:54.534Z,1244
2017-03-08T08:15:04.893Z,1192
2017-03-08T08:16:15.642Z,1212
2017-03-08T08:17:26.036Z,1248
2017-03-08T08:18:36.428Z,1300
2017-03-08T08:19:46.706Z,1380
2017-03-08T08:20:57.078Z,1472
2017-03-08T08:22:07.471Z,1576
2017-03-08T08:23:18.249Z,1680
2017-03-08T08:24:28.699Z,1772
2017-03-08T08:25:39.389Z,1796
2017-03-08T08:26:49.814Z,1824
2017-03-08T08:28:00.210Z,1952
2017-03-08T08:29:10.570Z,1932
2017-03-08T08:30:20.578Z,1832
2017-03-08T08:31:31.198Z,1768
2017-03-08T08:32:41.960Z,1724
2017-03-08T08:33:52.741Z,1680
2017-03-08T08:35:02.694Z,1652
2017-03-08T08:36:13.440Z,1656
2017-03-08T08:37:24.568Z,1636
2017-03-08T08:38:34.950Z,1620
2017-03-08T08:39:44.953Z,1692
2017-03-08T08:40:55.305Z,1868
2017-03-08T08:42:06.083Z,1936
2017-03-08T08:43:16.768Z,1924
2017-03-08T08:44:27.127Z,1960
2017-03-08T08:45:37.496Z,1996
2017-03-08T08:46:47.846Z,2100
2017-03-08T08:47:58.603Z,2144
2017-03-08T08:49:09.423Z,2208
2017-03-08T08:50:20.175Z,2364
2017-03-08T08:51:30.540Z,2388
2017-03-08T08:52:40.515Z,2384
2017-03-08T08:53:50.531Z,2496
2017-03-08T08:55:00.758Z,2512
2017-03-08T08:56:10.735Z,2496
2017-03-08T08:57:21.088Z,2376
2017-03-08T08:58:31.885Z,2264
2017-03-08T08:59:42.461Z,2224
2017-03-08T09:00:53.570Z,2064
2017-03-08T09:02:03.951Z,1888
2017-03-08T09:03:14.310Z,1768
2017-03-08T09:04:24.676Z,1588
2017-03-08T09:05:34.672Z,1588
2017-03-08T09:06:45.343Z,1800
2017-03-08T09:07:56.131Z,1800
2017-03-08T09:09:06.500Z,1680
2017-03-08T09:10:17.286Z,1560
2017-03-08T09:11:27.692Z,1532
2017-03-08T09:12:38.376Z,1492
2017-03-08T09:13:48.367Z,1484
2017-03-08T09:14:58.374Z,1476
2017-03-08T09:16:09.256Z,1468
2017-03-08T09:17:20.007Z,1460
2017-03-08T09:18:31.074Z,1460
2017-03-08T09:19:40.706Z,1432
2017-03-08T09:20:51.120Z,1428
2017-03-08T09:22:01.565Z,1424
2017-03-08T09:23:11.551Z,1420
2017-03-08T09:24:22.255Z,1444
2017-03-08T09:25:31.879Z,1400
2017-03-08T09:26:42.263Z,1364
2017-03-08T09:27:52.629Z,1340
2017-03-08T09:29:03.368Z,1376
2017-03-08T09:30:14.433Z,1404
2017-03-08T09:31:24.783Z,1364
2017-03-08T09:32:34.783Z,1340
2017-03-08T09:33:45.151Z,1316
2017-03-08T09:34:55.946Z,1364
2017-03-08T09:36:07.036Z,1360
2017-03-08T09:37:17.458Z,1356
2017-03-08T09:38:27.823Z,1356
2017-03-08T09:39:37.836Z,1372
2017-03-08T09:40:48.619Z,1356
2017-03-08T09:41:59.331Z,1364
2017-03-08T09:43:09.724Z,1368
2017-03-08T09:44:19.749Z,1336
2017-03-08T09:45:30.503Z,1356
2017-03-08T09:46:41.266Z,1340
2017-03-08T09:47:52.309Z,1320
2017-03-08T09:49:02.668Z,1332
2017-03-08T09:50:13.420Z,1312
2017-03-08T09:51:23.761Z,1288
2017-03-08T09:52:34.184Z,1288
2017-03-08T09:53:44.585Z,1292
2017-03-08T09:54:54.949Z,1272
2017-03-08T09:56:05.330Z,1312
2017-03-08T09:57:15.689Z,1296
2017-03-08T09:58:26.645Z,1304
2017-03-08T09:59:37.001Z,1404
2017-03-08T10:00:46.980Z,1408
2017-03-08T10:01:57.715Z,1380
2017-03-08T10:03:08.518Z,1360
2017-03-08T10:04:18.812Z,1356
2017-03-08T10:05:28.380Z,1400
2017-03-08T10:06:38.793Z,1556
2017-03-08T10:07:49.173Z,2592
2017-03-08T10:08:59.573Z,2408
2017-03-08T10:10:10.633Z,2056
2017-03-08T10:11:20.639Z,1532
2017-03-08T10:12:31.394Z,1548
2017-03-08T10:13:41.759Z,1864
2017-03-08T10:14:52.120Z,1856
2017-03-08T10:16:02.425Z,1788
2017-03-08T10:17:12.415Z,1680
2017-03-08T10:18:22.819Z,1796
2017-03-08T10:19:33.187Z,1680
2017-03-08T10:20:43.163Z,1768
2017-03-08T10:21:53.423Z,1832
2017-03-08T10:23:03.829Z,1668
2017-03-08T10:24:14.219Z,1804
2017-03-08T10:25:24.613Z,2164
2017-03-08T10:26:35.022Z,2040
2017-03-08T10:27:45.288Z,2180
2017-03-08T10:28:55.663Z,2148
2017-03-08T10:30:06.018Z,2004
2017-03-08T10:31:16.396Z,1932
2017-03-08T10:32:27.161Z,2084
2017-03-08T10:33:37.823Z,2228
2017-03-08T10:34:48.579Z,2248
2017-03-08T10:35:58.533Z,2332
2017-03-08T10:37:09.289Z,2380
2017-03-08T10:38:20.378Z,2208
2017-03-08T10:39:31.045Z,2152
2017-03-08T10:40:40.616Z,2188
2017-03-08T10:41:50.965Z,2396
2017-03-08T10:43:00.153Z,2404
2017-03-08T10:44:10.549Z,2472
2017-03-08T10:45:21.307Z,2468
2017-03-08T10:46:32.080Z,2520
2017-03-08T10:47:42.511Z,2696
2017-03-08T10:48:52.482Z,2792
2017-03-08T10:50:02.767Z,2740
2017-03-08T10:51:12.363Z,2700
2017-03-08T10:52:22.768Z,2848
2017-03-08T10:53:32.777Z,3044
2017-03-08T10:54:43.139Z,3232
2017-03-08T10:55:53.508Z,3268
2017-03-08T10:57:04.304Z,2980
2017-03-08T10:58:15.055Z,2816
2017-03-08T10:59:25.819Z,2952
2017-03-08T11:00:36.041Z,2948
2017-03-08T11:01:46.429Z,2848
2017-03-08T11:02:56.371Z,2712
2017-03-08T11:04:06.774Z,2428
2017-03-08T11:05:17.145Z,2652
2017-03-08T11:06:28.159Z,3140
2017-03-08T11:07:38.156Z,3192
2017-03-08T11:08:48.901Z,2868
2017-03-08T11:09:59.250Z,2876
2017-03-08T11:11:09.618Z,2840
2017-03-08T11:12:20.621Z,3000
2017-03-08T11:13:31.401Z,3044
2017-03-08T11:14:42.210Z,2740
2017-03-08T11:15:52.952Z,2772
2017-03-08T11:17:03.327Z,3028
2017-03-08T11:18:13.929Z,3264
2017-03-08T11:19:24.674Z,3280
2017-03-08T11:20:34.674Z,3176
2017-03-08T11:21:45.445Z,3404
2017-03-08T11:22:56.204Z,3316
2017-03-08T11:24:07.247Z,2916
2017-03-08T11:25:18.046Z,2736
2017-03-08T11:26:28.827Z,2428
2017-03-08T11:27:39.596Z,2744
2017-03-08T11:28:50.344Z,2708
2017-03-08T11:30:00.719Z,2484
2017-03-08T11:31:11.189Z,2424
2017-03-08T11:32:22.200Z,2700
2017-03-08T11:33:32.990Z,2940
2017-03-08T11:34:43.326Z,2748
2017-03-08T11:35:54.117Z,2692
2017-03-08T11:37:04.959Z,2824
2017-03-08T11:38:15.345Z,3212
2017-03-08T11:39:26.136Z,2996
2017-03-08T11:40:37.209Z,2788
2017-03-08T11:41:48.204Z,2728
2017-03-08T11:42:58.592Z,3028
2017-03-08T11:44:08.943Z,3176
2017-03-08T11:45:19.708Z,3188
2017-03-08T11:46:30.379Z,2648
2017-03-08T11:47:40.733Z,2272
2017-03-08T11:48:51.090Z,2364
2017-03-08T11:50:01.856Z,2504
2017-03-08T11:51:12.635Z,2244
2017-03-08T11:52:23.301Z,2192
2017-03-08T11:53:33.292Z,2168
2017-03-08T11:54:44.051Z,2336
2017-03-08T11:55:55.141Z,2420
2017-03-08T11:57:05.110Z,2316
2017-03-08T11:58:15.097Z,2332
2017-03-08T11:59:25.899Z,2332
2017-03-08T12:00:36.903Z,2532
2017-03-08T12:01:47.701Z,2524
2017-03-08T12:02:58.485Z,2476
2017-03-08T12:04:09.490Z,2480
2017-03-08T12:05:20.277Z,2544
2017-03-08T12:06:31.075Z,2664
2017-03-08T12:07:41.858Z,2584
2017-03-08T12:08:52.616Z,2660
2017-03-08T12:10:03.627Z,2816
2017-03-08T12:11:13.986Z,2788
2017-03-08T12:12:24.808Z,2852
2017-03-08T12:13:35.166Z,2928
2017-03-08T12:14:45.960Z,3008
2017-03-08T12:15:57.029Z,3044
2017-03-08T12:17:07.375Z,3052
2017-03-08T12:18:18.162Z,3048
2017-03-08T12:19:28.547Z,3032
2017-03-08T12:20:39.282Z,3000
2017-03-08T12:21:50.370Z,2968
2017-03-08T12:23:00.734Z,2936
2017-03-08T12:24:11.104Z,2884
2017-03-08T12:25:21.892Z,2844
2017-03-08T12:26:32.268Z,2848
2017-03-08T12:27:43.349Z,2844
2017-03-08T12:28:53.726Z,2736
2017-03-08T12:30:04.475Z,2764
2017-03-08T12:31:15.274Z,2908
2017-03-08T12:32:24.854Z,2892
2017-03-08T12:33:35.498Z,3036
2017-03-08T12:34:46.285Z,3124
2017-03-08T12:35:56.642Z,3148
2017-03-08T12:37:07.419Z,3160
2017-03-08T12:38:17.835Z,3176
2017-03-08T12:39:28.860Z,3160
2017-03-08T12:40:39.621Z,2848
2017-03-08T12:41:49.580Z,2360
2017-03-08T12:43:00.334Z,2496
2017-03-08T12:44:10.732Z,2528
2017-03-08T12:45:20.944Z,2916
2017-03-08T12:46:31.319Z,3004
2017-03-08T12:47:42.072Z,3472
2017-03-08T12:48:52.414Z,3448
2017-03-08T12:50:03.171Z,3432
2017-03-08T12:51:13.776Z,3332
2017-03-08T12:52:24.528Z,3184
2017-03-08T12:53:35.281Z,3056
2017-03-08T12:54:46.046Z,2808
2017-03-08T12:55:56.802Z,2620
2017-03-08T12:57:07.463Z,2548
2017-03-08T12:58:18.239Z,2300
2017-03-08T12:59:28.603Z,2144
2017-03-08T13:00:39.365Z,2112
2017-03-08T13:01:49.734Z,2012
2017-03-08T13:03:00.747Z,1944
2017-03-08T13:04:11.140Z,1892
2017-03-08T13:05:21.916Z,1836
2017-03-08T13:06:31.500Z,1756
2017-03-08T13:07:42.245Z,1680
2017-03-08T13:08:53.298Z,1632
2017-03-08T13:10:03.650Z,1680
2017-03-08T13:11:14.013Z,1948
2017-03-08T13:12:24.779Z,2060
2017-03-08T13:13:35.167Z,1936
2017-03-08T13:14:46.194Z,1632
2017-03-08T13:15:56.174Z,1392
2017-03-08T13:17:06.934Z,1348
2017-03-08T13:18:17.289Z,1392
2017-03-08T13:19:27.645Z,1476
2017-03-08T13:20:38.642Z,1548
2017-03-08T13:21:49.414Z,1572
2017-03-08T13:23:00.196Z,1664
2017-03-08T13:24:10.549Z,1724
2017-03-08T13:25:21.336Z,1808
2017-03-08T13:26:32.406Z,1924
2017-03-08T13:27:42.776Z,1972
2017-03-08T13:28:53.510Z,2044
2017-03-08T13:30:04.281Z,2176
2017-03-08T13:31:15.077Z,2224
2017-03-08T13:32:25.768Z,2304
2017-03-08T13:33:36.539Z,2228
2017-03-08T13:34:46.896Z,2208
2017-03-08T13:35:57.675Z,1868
2017-03-08T13:37:08.431Z,1704
2017-03-08T13:38:19.484Z,1764
2017-03-08T13:39:30.243Z,1984
2017-03-08T13:40:40.687Z,1980
2017-03-08T13:41:51.089Z,2296
2017-03-08T13:43:01.477Z,2032
2017-03-08T13:44:12.236Z,2028
2017-03-08T13:45:22.997Z,1836
2017-03-08T13:46:33.781Z,1740
2017-03-08T13:47:44.552Z,1732
2017-03-08T13:48:55.372Z,1608
2017-03-08T13:50:06.072Z,1508
2017-03-08T13:51:16.838Z,1300
2017-03-08T13:52:27.195Z,1288
2017-03-08T13:53:37.173Z,1140
2017-03-08T13:54:48.135Z,1052
2017-03-08T13:55:58.517Z,1024
2017-03-08T13:57:08.891Z,984
2017-03-08T13:58:19.655Z,972
2017-03-08T13:59:30.408Z,1116
2017-03-08T14:00:41.432Z,1040
2017-03-08T14:01:51.788Z,1296
2017-03-08T14:03:02.169Z,1632
2017-03-08T14:04:12.534Z,1340
2017-03-08T14:05:22.513Z,1408
2017-03-08T14:06:33.548Z,1416
2017-03-08T14:07:44.280Z,1732
2017-03-08T14:08:54.664Z,1452
2017-03-08T14:10:04.665Z,1292
2017-03-08T14:11:15.419Z,1636
2017-03-08T14:12:25.642Z,1868
2017-03-08T14:13:36.411Z,1588
2017-03-08T14:14:46.373Z,1648
2017-03-08T14:15:57.141Z,1680
2017-03-08T14:17:07.547Z,1700
2017-03-08T14:18:18.613Z,1712
2017-03-08T14:19:28.984Z,1676
2017-03-08T14:20:39.356Z,1684
2017-03-08T14:21:49.324Z,1832
2017-03-08T14:22:59.291Z,1964
2017-03-08T14:24:09.913Z,2036
2017-03-08T14:25:20.261Z,2044
2017-03-08T14:26:30.642Z,1992
2017-03-08T14:27:40.996Z,1920
2017-03-08T14:28:51.340Z,1868
2017-03-08T14:30:01.944Z,1776
2017-03-08T14:31:11.916Z,1648
2017-03-08T14:32:22.280Z,1584
2017-03-08T14:33:32.758Z,1556
2017-03-08T14:34:43.134Z,1552
2017-03-08T14:35:54.178Z,1548
2017-03-08T14:37:04.533Z,1524
2017-03-08T14:38:14.489Z,1460
2017-03-08T14:39:25.256Z,1396
2017-03-08T14:40:35.608Z,1352
2017-03-08T14:41:46.242Z,1308
2017-03-08T14:42:56.220Z,1256
2017-03-08T14:44:06.226Z,1204
2017-03-08T14:45:17.034Z,1176
2017-03-08T14:46:27.833Z,1136
2017-03-08T14:47:38.456Z,1116
2017-03-08T14:48:48.831Z,1120
2017-03-08T14:49:59.202Z,1108
2017-03-08T14:51:09.570Z,1088
2017-03-08T14:52:19.945Z,1068
2017-03-08T14:53:30.578Z,1088
2017-03-08T14:54:41.347Z,1112
2017-03-08T14:55:51.692Z,1132
2017-03-08T14:57:02.076Z,1120
2017-03-08T14:58:12.418Z,1096
2017-03-08T14:59:22.642Z,1064
2017-03-08T15:00:32.997Z,1044
2017-03-08T15:01:43.005Z,1032
2017-03-08T15:02:53.766Z,1028
2017-03-08T15:04:04.147Z,1032
2017-03-08T15:05:14.771Z,1024
2017-03-08T15:06:25.150Z,1020
2017-03-08T15:07:35.897Z,1016
2017-03-08T15:08:45.091Z,1012
2017-03-08T15:09:55.462Z,1004
2017-03-08T15:11:06.562Z,1000
2017-03-08T15:12:16.518Z,988
2017-03-08T15:13:26.479Z,956
2017-03-08T15:14:37.241Z,916
2017-03-08T15:15:47.991Z,884
2017-03-08T15:16:59.051Z,856
2017-03-08T15:18:09.802Z,840
2017-03-08T15:19:20.174Z,828
2017-03-08T15:20:30.928Z,820
2017-03-08T15:21:41.306Z,812
2017-03-08T15:22:52.310Z,804
2017-03-08T15:24:02.691Z,792
2017-03-08T15:25:13.439Z,764
2017-03-08T15:26:23.816Z,736
2017-03-08T15:27:34.549Z,708
2017-03-08T15:28:45.555Z,680
2017-03-08T15:29:55.557Z,660
2017-03-08T15:31:06.341Z,644
2017-03-08T15:32:17.091Z,636
2017-03-08T15:33:27.461Z,636
2017-03-08T15:34:38.459Z,632
2017-03-08T15:35:48.843Z,624
2017-03-08T15:36:59.589Z,616
2017-03-08T15:38:09.925Z,608
2017-03-08T15:39:20.277Z,604
2017-03-08T15:40:31.344Z,592
2017-03-08T15:41:42.097Z,588
2017-03-08T15:42:52.460Z,584
2017-03-08T15:44:02.028Z,592
2017-03-08T15:45:12.786Z,608
2017-03-08T15:46:23.407Z,620
2017-03-08T15:47:34.159Z,628
2017-03-08T15:48:44.119Z,624
2017-03-08T15:49:54.869Z,628
2017-03-08T15:51:05.638Z,624
2017-03-08T15:52:15.876Z,616
2017-03-08T15:53:26.245Z,608
2017-03-08T15:54:36.261Z,604
2017-03-08T15:55:47.020Z,600
2017-03-08T15:56:56.996Z,592
2017-03-08T15:58:07.615Z,580
2017-03-08T15:59:18.370Z,564
2017-03-08T16:00:29.164Z,540
2017-03-08T16:01:40.273Z,512
2017-03-08T16:02:50.256Z,476
2017-03-08T16:04:01.330Z,452
2017-03-08T16:05:11.688Z,448
2017-03-08T16:06:22.030Z,444
2017-03-08T16:07:31.989Z,436
2017-03-08T16:08:42.751Z,424
2017-03-08T16:09:53.756Z,412
2017-03-08T16:11:04.533Z,396
2017-03-08T16:12:15.285Z,380
2017-03-08T16:13:25.261Z,368
2017-03-08T16:14:35.634Z,352
2017-03-08T16:15:46.641Z,332
2017-03-08T16:16:57.004Z,312
2017-03-08T16:18:07.753Z,292
2017-03-08T16:19:18.108Z,264